Serra do Salitre, Brazil
Current Conditions -  °F | °C
As of 1:00 PM on Saturday 22 Nov 2014 (Local Time) from SBUR Reporting Station
Scattered Clouds Scattered Clouds  
Wind Chill: 86°   Ceiling: Unl
Heat Index: 87°   Visibility: 6mi
Dew Point: 64°   Wind: 17mph
Humidity: 48%   Direction: 330°NNW
Pressure: 30"   Gusts: NA
Location:  19.11°S, 46.69°W
Report Text: SBUR 221500Z 33015KT 9999 SCT040 30/18 Q1016
Loading
Personal Weather Stations






























Interactive Weather Map New forecast layout! Learn more

10-Day Weather Forecast

Advertisements
Track Severe Weather on mobile